Time;durP1;ratioP1;P1;durP2;ratioP2;P2;SDS_P1;SDS_P2;PMS_P1;PMS_P2;Temp;Humidity;BMP_temperature;BMP_pressure;BME280_temperature;BME280_humidity;BME280_pressure;Samples;Min_cycle;Max_cycle;Signal;HPM_P1;HPM_P2
2023/01/29 00:01:19;;;;;;;9.67;8.87;;;;;;;2.24;100.00;146623.53;5053788;28;20315;-62
2023/01/29 00:03:46;;;;;;;10.13;9.10;;;;;;;2.40;100.00;146661.16;5054067;28;20625;-61
2023/01/29 00:06:13;;;;;;;9.87;8.83;;;;;;;2.37;100.00;146654.91;5053451;28;20181;-60
2023/01/29 00:08:39;;;;;;;9.60;8.87;;;;;;;2.37;100.00;146654.91;5053362;28;20198;-61
2023/01/29 00:11:08;;;;;;;9.60;8.90;;;;;;;2.40;100.00;146661.16;5053458;28;20185;-62
2023/01/29 00:13:36;;;;;;;8.77;8.10;;;;;;;2.18;100.00;146608.44;5053394;28;20189;-62
2023/01/29 00:16:03;;;;;;;8.90;8.27;;;;;;;2.00;100.00;146563.25;5053468;28;20190;-61
2023/01/29 00:18:32;;;;;;;8.57;8.07;;;;;;;2.28;100.00;146632.31;5053721;28;20211;-62
2023/01/29 00:20:58;;;;;;;9.00;8.43;;;;;;;2.20;100.00;146613.50;5053444;28;20226;-60
2023/01/29 00:23:25;;;;;;;8.97;8.07;;;;;;;2.20;100.00;146613.50;5052841;28;20188;-61
2023/01/29 00:25:52;;;;;;;9.50;8.60;;;;;;;2.30;100.00;146638.56;5053183;28;20588;-61
2023/01/29 00:28:19;;;;;;;8.17;7.57;;;;;;;2.25;100.00;146626.00;5053111;28;20502;-62
2023/01/29 00:30:46;;;;;;;7.67;7.17;;;;;;;2.32;100.00;146642.34;5053339;28;20232;-60
2023/01/29 00:33:13;;;;;;;8.83;8.00;;;;;;;2.36;100.00;146652.38;5052980;28;20197;-60
2023/01/29 00:35:41;;;;;;;8.63;7.97;;;;;;;2.28;100.00;146633.56;5052918;28;20256;-61
2023/01/29 00:38:08;;;;;;;8.67;8.07;;;;;;;2.21;100.00;146615.97;5053089;28;20189;-61
2023/01/29 00:46:08;;;;;;;8.03;7.53;;;;;;;2.26;100.00;146628.53;5052938;28;20190;-61
2023/01/29 00:48:35;;;;;;;8.33;7.63;;;;;;;2.37;100.00;146653.66;5052704;28;20189;-60
2023/01/29 00:51:04;;;;;;;7.17;6.73;;;;;;;2.35;100.00;146649.88;5052552;28;20216;-61
2023/01/29 00:53:30;;;;;;;7.93;7.43;;;;;;;2.34;100.00;146647.34;5053290;28;20545;-61
2023/01/29 00:55:57;;;;;;;7.80;7.27;;;;;;;2.30;100.00;146638.56;5052787;28;20196;-62
2023/01/29 00:58:32;;;;;;;8.37;7.63;;;;;;;2.34;100.00;146646.09;5052529;28;20193;-62
2023/01/29 01:01:00;;;;;;;6.60;6.20;;;;;;;2.33;100.00;146643.59;5052417;28;20181;-62
2023/01/29 01:03:26;;;;;;;6.97;6.37;;;;;;;2.43;100.00;146668.69;5052378;28;20186;-62
2023/01/29 01:06:04;;;;;;;6.20;5.80;;;;;;;2.29;100.00;146636.03;5052563;28;20248;-61
2023/01/29 01:11:16;;;;;;;6.27;5.87;;;;;;;2.20;100.00;146613.50;5052354;28;20205;-60
2023/01/29 01:13:43;;;;;;;6.80;6.33;;;;;;;2.07;100.00;146580.84;5052252;28;20193;-62
2023/01/29 01:16:11;;;;;;;5.93;5.57;;;;;;;2.16;100.00;146603.44;5052409;28;20585;-61
2023/01/29 01:18:38;;;;;;;5.30;5.00;;;;;;;1.94;100.00;146548.22;5052076;28;20186;-61
2023/01/29 01:21:06;;;;;;;6.03;5.63;;;;;;;1.84;100.00;146523.09;5052441;28;20177;-62
2023/01/29 01:23:33;;;;;;;5.50;5.20;;;;;;;1.83;100.00;146520.59;5052143;28;20189;-60
2023/01/29 01:26:00;;;;;;;6.00;5.70;;;;;;;1.95;100.00;146550.75;5052303;28;20181;-60
2023/01/29 01:28:28;;;;;;;5.23;4.93;;;;;;;1.82;100.00;146519.31;5052045;28;20200;-62
2023/01/29 01:30:55;;;;;;;5.47;5.17;;;;;;;1.90;100.00;146536.94;5052163;28;20668;-60
2023/01/29 01:33:21;;;;;;;5.87;5.57;;;;;;;2.01;100.00;146564.50;5051953;28;20209;-61
2023/01/29 01:35:48;;;;;;;6.00;5.70;;;;;;;1.98;100.00;146558.25;5051614;28;20233;-62
2023/01/29 01:38:17;;;;;;;5.13;4.83;;;;;;;1.85;100.00;146525.63;5052048;28;20194;-61
2023/01/29 01:40:47;;;;;;;6.03;5.70;;;;;;;1.90;100.00;146538.19;5051994;28;20189;-61
2023/01/29 01:43:14;;;;;;;5.80;5.27;;;;;;;1.76;100.00;146504.28;5051623;28;20191;-60
2023/01/29 01:45:42;;;;;;;5.73;5.33;;;;;;;1.71;100.00;146491.75;5051692;28;20204;-60
2023/01/29 01:48:13;;;;;;;5.67;5.27;;;;;;;1.79;100.00;146511.81;5051931;28;20610;-62
2023/01/29 01:50:45;;;;;;;5.50;5.10;;;;;;;1.62;100.00;146469.16;5051527;28;20213;-63
2023/01/29 01:53:15;;;;;;;5.23;4.93;;;;;;;1.76;100.00;146503.03;5051902;28;20559;-62
2023/01/29 01:55:48;;;;;;;5.73;5.23;;;;;;;1.82;100.00;146518.13;5051506;28;20186;-60
2023/01/29 01:58:22;;;;;;;5.60;5.20;;;;;;;1.95;100.00;146550.75;5051581;28;20189;-62
2023/01/29 02:00:50;;;;;;;5.43;5.13;;;;;;;1.96;100.00;146551.97;5051687;28;20185;-62
2023/01/29 02:11:41;;;;;;;6.23;5.83;;;;;;;1.97;100.00;146554.47;5051672;28;20185;-60
2023/01/29 02:14:08;;;;;;;5.93;5.60;;;;;;;1.89;100.00;146534.41;5051680;28;20186;-61
2023/01/29 02:16:36;;;;;;;5.70;5.40;;;;;;;2.00;100.00;146562.00;5051916;28;20643;-61
2023/01/29 02:19:05;;;;;;;6.67;6.27;;;;;;;2.02;100.00;146568.28;5051329;28;20206;-62
2023/01/29 02:21:52;;;;;;;5.50;5.20;;;;;;;2.09;100.00;146585.84;5051263;28;20188;-62
2023/01/29 02:24:41;;;;;;;5.37;5.07;;;;;;;2.09;100.00;146584.59;5051174;28;20185;-60
2023/01/29 02:27:14;;;;;;;5.47;5.17;;;;;;;2.11;100.00;146590.91;5051244;28;20228;-61
2023/01/29 02:29:53;;;;;;;6.33;5.93;;;;;;;2.02;100.00;146568.28;5051518;28;20525;-61
2023/01/29 02:32:27;;;;;;;5.83;5.53;;;;;;;2.23;100.00;146621.00;5051108;28;20192;-61
2023/01/29 02:37:57;;;;;;;6.03;5.63;;;;;;;2.08;100.00;146582.13;5051201;28;20181;-61
2023/01/29 02:40:30;;;;;;;6.57;6.07;;;;;;;2.07;100.00;146579.59;5051043;28;20190;-61
2023/01/29 02:43:06;;;;;;;6.50;6.10;;;;;;;1.78;100.00;146508.09;5051053;28;20189;-62
2023/01/29 02:45:43;;;;;;;7.10;6.70;;;;;;;1.63;100.00;146470.41;5050946;28;20188;-60
2023/01/29 02:48:15;;;;;;;8.00;7.50;;;;;;;1.56;100.00;146452.88;5053781;28;20181;-63
2023/01/29 02:50:46;;;;;;;6.50;6.10;;;;;;;1.49;100.00;146435.28;5054858;28;20213;-61
2023/01/29 02:53:16;;;;;;;7.53;6.93;;;;;;;1.38;100.00;146410.22;5055320;28;20553;-62
2023/01/29 02:55:49;;;;;;;7.50;6.97;;;;;;;1.33;100.00;146396.41;5055069;28;20671;-61
2023/01/29 02:58:24;;;;;;;6.80;6.20;;;;;;;1.30;100.00;146388.91;5055006;28;20189;-62
2023/01/29 03:00:59;;;;;;;6.27;5.87;;;;;;;1.27;100.00;146382.59;5054689;28;20181;-63
2023/01/29 03:03:31;;;;;;;6.00;5.70;;;;;;;1.27;100.00;146382.59;5055277;28;20264;-62
2023/01/29 03:06:05;;;;;;;7.50;7.00;;;;;;;1.33;100.00;146397.66;5054604;28;20251;-60
2023/01/29 03:08:41;;;;;;;6.97;6.50;;;;;;;1.29;100.00;146387.63;5054882;28;20185;-63
2023/01/29 03:11:12;;;;;;;7.30;6.80;;;;;;;1.30;100.00;146390.16;5054824;28;20630;-62
2023/01/29 03:13:44;;;;;;;7.70;7.10;;;;;;;1.31;100.00;146391.41;5054439;28;20190;-63
2023/01/29 03:16:20;;;;;;;7.67;7.17;;;;;;;1.32;100.00;146393.88;5054711;28;20193;-62
2023/01/29 03:18:53;;;;;;;6.97;6.57;;;;;;;1.27;100.00;146382.59;5054692;28;20189;-62
2023/01/29 03:32:37;;;;;;;7.63;7.10;;;;;;;1.38;100.00;146410.22;5054658;28;20243;-61
2023/01/29 03:35:08;;;;;;;8.43;7.93;;;;;;;1.31;100.00;146391.41;5054078;28;20323;-62
2023/01/29 03:37:40;;;;;;;7.40;6.67;;;;;;;1.34;100.00;146398.94;5054427;28;20641;-62
2023/01/29 03:40:09;;;;;;;12.77;7.03;;;;;;;1.21;100.00;146366.31;5054237;28;20651;-62
2023/01/29 03:42:49;;;;;;;7.97;7.47;;;;;;;1.34;100.00;146400.19;5053962;28;20192;-61
2023/01/29 03:45:25;;;;;;;7.63;7.07;;;;;;;1.31;100.00;146392.69;5054023;28;20189;-63
2023/01/29 03:48:03;;;;;;;9.13;8.07;;;;;;;1.40;100.00;146412.75;5053892;28;20189;-61
2023/01/29 03:50:37;;;;;;;9.00;8.27;;;;;;;1.37;100.00;146406.44;5053667;28;20209;-61
2023/01/29 03:53:10;;;;;;;8.67;7.97;;;;;;;1.19;100.00;146361.31;5053877;28;20232;-62
2023/01/29 03:55:43;;;;;;;9.53;8.77;;;;;;;1.20;100.00;146363.81;5053825;28;20178;-61
2023/01/29 03:58:23;;;;;;;8.67;7.80;;;;;;;1.25;100.00;146376.34;5053638;28;20285;-61
2023/01/29 04:00:55;;;;;;;7.53;6.87;;;;;;;1.23;100.00;146372.56;5053293;28;20193;-63
2023/01/29 04:03:28;;;;;;;8.27;7.57;;;;;;;1.31;100.00;146392.69;5053961;28;20181;-61
2023/01/29 04:06:04;;;;;;;8.70;8.00;;;;;;;0.95;100.00;146302.38;5053845;28;20559;-62
2023/01/29 04:08:36;;;;;;;7.97;7.43;;;;;;;1.28;100.00;146383.84;5053382;28;20199;-62
2023/01/29 04:11:10;;;;;;;8.63;7.80;;;;;;;1.20;100.00;146365.06;5053243;28;20215;-62
2023/01/29 04:13:38;;;;;;;8.50;7.80;;;;;;;1.18;100.00;146360.06;5053683;28;20214;-61
2023/01/29 04:16:09;;;;;;;8.57;7.83;;;;;;;1.21;100.00;146367.56;5053373;28;20197;-63
2023/01/29 04:18:37;;;;;;;8.63;7.83;;;;;;;1.23;100.00;146372.56;5053549;28;20185;-62
2023/01/29 04:21:07;;;;;;;8.67;7.90;;;;;;;1.27;100.00;146382.59;5053327;28;20185;-62
2023/01/29 04:23:34;;;;;;;8.27;7.57;;;;;;;1.14;100.00;146348.78;5053439;28;20182;-62
2023/01/29 04:26:23;;;;;;;9.13;8.33;;;;;;;1.28;100.00;146385.13;5053181;28;20193;-62
2023/01/29 04:28:59;;;;;;;9.00;8.17;;;;;;;1.33;100.00;146397.66;5040551;28;20201;-61
2023/01/29 04:31:32;;;;;;;9.10;8.37;;;;;;;1.32;100.00;146393.88;5053521;28;20204;-63
2023/01/29 04:34:13;;;;;;;9.00;8.20;;;;;;;1.24;100.00;146375.09;5053450;28;20648;-62
2023/01/29 04:36:50;;;;;;;8.83;8.10;;;;;;;1.24;100.00;146373.81;5052844;28;20593;-62
2023/01/29 04:39:24;;;;;;;10.40;8.53;;;;;;;1.24;100.00;146375.09;5053292;28;20189;-61
2023/01/29 04:41:55;;;;;;;8.70;8.00;;;;;;;1.50;100.00;146437.78;5053286;28;20604;-63
2023/01/29 04:44:33;;;;;;;8.30;7.70;;;;;;;1.57;100.00;146456.59;5052602;28;20196;-61
2023/01/29 04:47:11;;;;;;;8.53;7.93;;;;;;;1.50;100.00;146437.78;5052700;28;20194;-61
2023/01/29 04:49:46;;;;;;;8.53;7.93;;;;;;;1.53;100.00;146446.56;5052917;28;20189;-61
2023/01/29 04:52:21;;;;;;;8.83;8.07;;;;;;;1.55;100.00;146451.59;5053253;28;20693;-62
2023/01/29 04:55:00;;;;;;;8.87;8.13;;;;;;;1.65;100.00;146475.47;5052905;28;20207;-61
2023/01/29 04:57:35;;;;;;;7.93;7.33;;;;;;;1.68;100.00;146482.97;5052900;28;20189;-60
2023/01/29 05:00:08;;;;;;;8.80;8.00;;;;;;;1.80;100.00;146513.06;5053046;28;20639;-63
2023/01/29 05:02:38;;;;;;;7.57;7.03;;;;;;;1.50;100.00;146439.06;5052695;28;20607;-63
2023/01/29 05:05:09;;;;;;;8.53;7.83;;;;;;;1.67;100.00;146481.72;5052570;28;20718;-61
2023/01/29 05:07:38;;;;;;;7.13;6.73;;;;;;;1.77;100.00;146505.56;5052535;28;20276;-62
2023/01/29 05:10:06;;;;;;;7.20;6.80;;;;;;;1.63;100.00;146470.41;5052217;28;20186;-62
2023/01/29 05:12:35;;;;;;;7.53;7.03;;;;;;;1.44;100.00;146424.03;5052286;28;20185;-62
2023/01/29 05:15:08;;;;;;;6.77;6.33;;;;;;;1.60;100.00;146462.91;5052212;28;20185;-61
2023/01/29 05:17:35;;;;;;;7.83;7.33;;;;;;;1.55;100.00;146451.59;5052094;28;20190;-61
2023/01/29 05:20:02;;;;;;;7.67;7.17;;;;;;;1.63;100.00;146470.41;5052453;28;20612;-62
2023/01/29 05:22:31;;;;;;;7.90;7.37;;;;;;;1.62;100.00;146469.16;5052058;28;20184;-63
2023/01/29 05:24:57;;;;;;;7.37;6.97;;;;;;;1.66;100.00;146477.94;5052173;28;20567;-62
2023/01/29 05:30:16;;;;;;;8.43;7.77;;;;;;;1.76;100.00;146503.03;5051878;28;20204;-62
2023/01/29 05:32:42;;;;;;;7.60;7.13;;;;;;;1.68;100.00;146482.97;5052059;28;20650;-61
2023/01/29 05:35:09;;;;;;;9.20;8.50;;;;;;;1.73;100.00;146495.53;5051964;28;20656;-61
2023/01/29 05:37:37;;;;;;;8.53;7.87;;;;;;;1.76;100.00;146504.28;5051800;28;20268;-61
2023/01/29 05:40:07;;;;;;;8.73;8.03;;;;;;;1.82;100.00;146519.31;5052125;28;20560;-62
2023/01/29 05:42:34;;;;;;;9.43;8.53;;;;;;;1.77;100.00;146505.56;5052080;28;20643;-61
2023/01/29 05:45:01;;;;;;;8.70;7.80;;;;;;;1.86;100.00;146528.16;5051628;28;20185;-63
2023/01/29 05:47:28;;;;;;;5.93;5.57;;;;;;;1.78;100.00;146508.09;5051994;28;20181;-62
2023/01/29 05:49:54;;;;;;;8.20;7.60;;;;;;;1.73;100.00;146496.78;5051780;28;20590;-62
2023/01/29 05:52:21;;;;;;;7.97;7.27;;;;;;;1.77;100.00;146506.81;5051763;28;20251;-62
2023/01/29 05:54:50;;;;;;;8.20;7.50;;;;;;;1.78;100.00;146508.09;5051646;28;20192;-62
2023/01/29 05:57:16;;;;;;;7.23;6.80;;;;;;;1.98;100.00;146557.00;5051570;28;20192;-62
2023/01/29 05:59:43;;;;;;;7.50;7.07;;;;;;;1.96;100.00;146553.22;5052025;28;20181;-61
2023/01/29 06:02:10;;;;;;;7.30;6.80;;;;;;;1.93;100.00;146544.44;5051706;28;20181;-63
2023/01/29 06:04:37;;;;;;;7.83;7.40;;;;;;;1.96;100.00;146553.22;5051895;28;20560;-62
2023/01/29 06:07:04;;;;;;;7.20;6.77;;;;;;;1.86;100.00;146526.88;5051556;28;20185;-63
2023/01/29 06:09:31;;;;;;;7.10;6.70;;;;;;;2.00;100.00;146563.25;5051509;28;20204;-61
2023/01/29 06:11:59;;;;;;;8.23;7.63;;;;;;;2.01;100.00;146565.78;5051422;28;20209;-62
2023/01/29 06:14:26;;;;;;;7.53;7.03;;;;;;;1.91;100.00;146540.66;5051678;28;20573;-61
2023/01/29 06:16:53;;;;;;;7.63;7.03;;;;;;;1.89;100.00;146534.41;5051929;28;20200;-62
2023/01/29 06:19:20;;;;;;;7.23;6.80;;;;;;;1.89;100.00;146534.41;5051899;28;20189;-62
2023/01/29 06:21:47;;;;;;;7.23;6.67;;;;;;;1.94;100.00;146548.22;5051442;28;20177;-62
2023/01/29 06:24:14;;;;;;;7.07;6.57;;;;;;;1.84;100.00;146524.38;5055635;28;20193;-62
2023/01/29 06:26:40;;;;;;;8.27;7.67;;;;;;;2.00;100.00;146563.25;5055775;28;20572;-61
2023/01/29 06:29:09;;;;;;;7.23;6.63;;;;;;;1.96;100.00;146553.22;5055362;28;20195;-61
2023/01/29 06:31:36;;;;;;;6.80;6.37;;;;;;;1.98;100.00;146558.25;5055310;28;20217;-62
2023/01/29 06:34:03;;;;;;;8.07;7.47;;;;;;;1.95;100.00;146550.75;5055655;28;20185;-60
2023/01/29 06:36:30;;;;;;;7.53;6.93;;;;;;;2.13;100.00;146595.88;5055100;28;20232;-62
2023/01/29 06:38:57;;;;;;;8.50;7.80;;;;;;;2.23;100.00;146621.00;5055216;28;20197;-62
2023/01/29 06:41:24;;;;;;;7.67;7.13;;;;;;;2.07;100.00;146580.84;5055513;28;20182;-62
2023/01/29 06:43:51;;;;;;;7.93;7.33;;;;;;;2.22;100.00;146618.50;5055327;28;20181;-62
2023/01/29 06:46:19;;;;;;;8.10;7.60;;;;;;;2.29;100.00;146636.03;5055401;28;20182;-63
2023/01/29 06:48:46;;;;;;;7.03;6.63;;;;;;;2.40;100.00;146661.16;5054948;28;20193;-62
2023/01/29 06:51:13;;;;;;;8.40;7.80;;;;;;;2.30;100.00;146637.31;5054802;28;20221;-62
2023/01/29 06:53:40;;;;;;;6.93;6.53;;;;;;;2.34;100.00;146646.09;5055053;28;20219;-62
2023/01/29 06:56:07;;;;;;;7.70;7.10;;;;;;;2.39;100.00;146659.91;5055124;28;20251;-63
2023/01/29 06:58:36;;;;;;;8.57;7.83;;;;;;;2.46;100.00;146676.25;5055336;28;20185;-61
2023/01/29 07:01:04;;;;;;;7.43;6.90;;;;;;;2.32;100.00;146642.34;5055068;28;20534;-62
2023/01/29 07:03:33;;;;;;;10.40;8.30;;;;;;;2.44;100.00;146672.47;5054670;28;20189;-62
2023/01/29 07:06:00;;;;;;;8.27;7.37;;;;;;;2.43;100.00;146669.94;5054744;28;20185;-60
2023/01/29 07:08:27;;;;;;;8.47;7.53;;;;;;;2.49;100.00;146683.78;5054646;28;20186;-62
2023/01/29 07:10:58;;;;;;;7.87;7.03;;;;;;;2.43;100.00;146668.69;5054975;28;20747;-62
2023/01/29 07:13:25;;;;;;;7.73;7.23;;;;;;;2.35;100.00;146649.88;5054762;28;20190;-62
2023/01/29 07:15:52;;;;;;;8.07;7.47;;;;;;;2.43;100.00;146668.69;5054754;28;20537;-65
2023/01/29 07:18:19;;;;;;;7.53;6.73;;;;;;;2.41;100.00;146663.69;5037183;28;20223;-62
2023/01/29 07:20:47;;;;;;;7.70;7.10;;;;;;;2.46;100.00;146677.47;5054600;28;20188;-63
2023/01/29 07:23:15;;;;;;;7.60;7.00;;;;;;;2.41;100.00;146663.69;5054373;28;20201;-61
2023/01/29 07:25:42;;;;;;;7.43;6.83;;;;;;;2.37;100.00;146654.91;5054250;28;20185;-61
2023/01/29 07:28:09;;;;;;;7.33;6.93;;;;;;;2.36;100.00;146651.13;5054345;28;20186;-62
2023/01/29 07:30:36;;;;;;;6.67;6.27;;;;;;;2.38;100.00;146657.38;5054593;28;20182;-62
2023/01/29 07:33:03;;;;;;;7.23;6.73;;;;;;;2.46;100.00;146676.25;5054147;28;20228;-61
2023/01/29 07:35:30;;;;;;;7.50;6.77;;;;;;;2.45;100.00;146673.72;5054033;28;20269;-61
2023/01/29 07:37:59;;;;;;;7.27;6.67;;;;;;;2.39;100.00;146658.66;5054684;28;20212;-61
2023/01/29 07:40:25;;;;;;;6.90;6.40;;;;;;;2.24;100.00;146622.28;5054265;28;20186;-62
2023/01/29 07:42:58;;;;;;;6.70;6.20;;;;;;;2.44;100.00;146671.22;5054293;28;20652;-63
2023/01/29 07:45:25;;;;;;;6.80;6.40;;;;;;;2.36;100.00;146651.13;5053958;28;20185;-61
2023/01/29 07:47:53;;;;;;;6.80;6.37;;;;;;;2.30;100.00;146638.56;5053882;28;20192;-62
2023/01/29 07:50:20;;;;;;;6.73;6.23;;;;;;;2.41;100.00;146663.69;5053894;28;20189;-62
2023/01/29 07:52:46;;;;;;;6.17;5.87;;;;;;;2.40;100.00;146661.16;5036274;28;20209;-63
2023/01/29 07:55:15;;;;;;;6.43;6.03;;;;;;;2.51;100.00;146690.03;5054101;28;20188;-63
2023/01/29 07:57:42;;;;;;;6.37;5.87;;;;;;;2.55;100.00;146700.06;5053687;28;20185;-62
2023/01/29 08:00:10;;;;;;;6.33;5.83;;;;;;;2.57;100.00;146705.13;5053959;28;20632;-63
2023/01/29 08:02:37;;;;;;;6.13;5.73;;;;;;;2.50;100.00;146687.56;5053630;28;20269;-62
2023/01/29 08:05:05;;;;;;;6.23;5.63;;;;;;;2.38;100.00;146656.16;5053797;28;20189;-61
2023/01/29 08:07:32;;;;;;;6.67;6.13;;;;;;;2.47;100.00;146680.00;5053537;28;20239;-62
2023/01/29 08:09:59;;;;;;;6.53;6.13;;;;;;;2.27;100.00;146631.06;5053854;28;20610;-61
2023/01/29 08:12:27;;;;;;;5.87;5.53;;;;;;;2.39;100.00;146659.91;5053621;28;20210;-62
2023/01/29 08:14:54;;;;;;;11.50;5.97;;;;;;;2.37;100.00;146653.66;5053674;28;20194;-62
2023/01/29 08:17:21;;;;;;;6.00;5.60;;;;;;;2.35;100.00;146648.59;5053665;28;20189;-62
2023/01/29 08:19:47;;;;;;;6.57;6.17;;;;;;;2.29;100.00;146636.03;5053736;28;20197;-61
2023/01/29 08:22:15;;;;;;;6.10;5.70;;;;;;;2.25;100.00;146626.00;5053274;28;20686;-61
2023/01/29 08:24:42;;;;;;;6.03;5.73;;;;;;;2.32;100.00;146641.09;5053246;28;20228;-63
2023/01/29 08:27:09;;;;;;;5.33;5.03;;;;;;;2.33;100.00;146644.88;5053259;28;20185;-62
2023/01/29 08:29:37;;;;;;;5.87;5.47;;;;;;;2.29;100.00;146634.81;5053316;28;20556;-62
2023/01/29 08:32:04;;;;;;;6.30;5.80;;;;;;;2.24;100.00;146622.28;5052984;28;20209;-61
2023/01/29 08:34:31;;;;;;;5.57;5.17;;;;;;;2.27;100.00;146631.06;5053166;28;20199;-60
2023/01/29 08:36:58;;;;;;;8.00;6.30;;;;;;;2.03;100.00;146570.81;5053257;28;20185;-63
2023/01/29 08:39:25;;;;;;;6.33;5.93;;;;;;;2.10;100.00;146588.38;5052922;28;20178;-62
2023/01/29 08:41:52;;;;;;;6.70;6.30;;;;;;;2.27;100.00;146631.06;5053291;28;20200;-61
2023/01/29 08:44:18;;;;;;;6.67;6.17;;;;;;;2.28;100.00;146633.56;5052562;28;20187;-61
2023/01/29 08:46:47;;;;;;;6.43;6.03;;;;;;;2.27;100.00;146631.06;5052352;28;20192;-63
2023/01/29 08:49:13;;;;;;;5.80;5.40;;;;;;;2.19;100.00;146610.97;5052747;28;20201;-62
2023/01/29 08:51:40;;;;;;;6.30;5.90;;;;;;;2.08;100.00;146583.31;5052569;28;20201;-62
2023/01/29 08:54:07;;;;;;;6.30;5.90;;;;;;;2.21;100.00;146615.97;5052936;28;20188;-62
2023/01/29 08:56:34;;;;;;;6.97;6.57;;;;;;;2.01;100.00;146565.78;5052923;28;20189;-61
2023/01/29 08:59:01;;;;;;;5.60;5.20;;;;;;;2.05;100.00;146574.56;5052815;28;20201;-62
2023/01/29 09:01:28;;;;;;;6.17;5.87;;;;;;;2.05;100.00;146575.81;5052782;28;20192;-61
2023/01/29 09:03:56;;;;;;;6.40;5.90;;;;;;;2.09;100.00;146585.84;5052653;28;20554;-62
2023/01/29 09:06:23;;;;;;;6.70;6.30;;;;;;;2.14;100.00;146598.41;5052266;28;20260;-61
2023/01/29 09:08:50;;;;;;;6.97;6.57;;;;;;;2.18;100.00;146607.19;5052567;28;20656;-61
2023/01/29 09:11:16;;;;;;;6.77;6.27;;;;;;;2.24;100.00;146622.28;5052460;28;20205;-62
2023/01/29 09:13:43;;;;;;;7.00;6.53;;;;;;;2.18;100.00;146607.19;5052272;28;20196;-63
2023/01/29 09:16:10;;;;;;;7.10;6.60;;;;;;;2.32;100.00;146641.09;5052199;28;20186;-61
2023/01/29 09:18:37;;;;;;;6.20;5.80;;;;;;;2.34;100.00;146647.34;5052463;28;20185;-63
2023/01/29 09:21:06;;;;;;;5.80;5.30;;;;;;;2.30;100.00;146638.56;5052151;28;20181;-61
2023/01/29 09:23:33;;;;;;;7.23;6.63;;;;;;;2.37;100.00;146653.66;5052241;28;20181;-61
2023/01/29 09:26:00;;;;;;;7.03;6.53;;;;;;;2.43;100.00;146668.69;5052304;28;20501;-62
2023/01/29 09:28:27;;;;;;;6.60;6.17;;;;;;;2.47;100.00;146680.00;5052041;28;20185;-64
2023/01/29 09:30:54;;;;;;;7.07;6.57;;;;;;;2.52;100.00;146691.28;5052338;28;20213;-61
2023/01/29 09:33:21;;;;;;;7.63;7.03;;;;;;;2.73;100.00;146744.03;5052275;28;20708;-61
2023/01/29 09:35:47;;;;;;;6.87;6.27;;;;;;;2.74;100.00;146747.81;5051809;28;20233;-61
2023/01/29 09:38:19;;;;;;;6.63;6.13;;;;;;;2.60;100.00;146711.38;5052184;28;20196;-61
2023/01/29 09:40:58;;;;;;;7.83;7.30;;;;;;;2.73;100.00;146745.28;5051762;28;20196;-62
2023/01/29 09:43:40;;;;;;;7.77;7.17;;;;;;;2.99;100.00;146809.34;5051869;28;20181;-62
2023/01/29 09:46:15;;;;;;;6.33;6.00;;;;;;;2.84;100.00;146770.41;5051710;28;20189;-61
2023/01/29 09:48:45;;;;;;;7.07;6.57;;;;;;;2.98;100.00;146806.81;5051997;28;20525;-62
2023/01/29 09:51:18;;;;;;;7.10;6.70;;;;;;;2.98;100.00;146806.81;5051701;28;20290;-61
2023/01/29 09:53:54;;;;;;;6.67;6.07;;;;;;;3.08;100.00;146830.69;5051934;28;20212;-61
2023/01/29 09:56:27;;;;;;;7.20;6.80;;;;;;;3.27;100.00;146878.41;5051418;28;20650;-62
2023/01/29 09:58:58;;;;;;;6.20;5.80;;;;;;;3.33;100.00;146893.50;5051403;28;20225;-63
2023/01/29 10:01:33;;;;;;;6.73;6.23;;;;;;;3.46;100.00;146924.91;5051522;28;20199;-62
2023/01/29 10:04:37;;;;;;;6.47;5.97;;;;;;;3.41;100.00;146912.34;5052145;28;20196;-62
2023/01/29 10:07:22;;;;;;;7.57;6.50;;;;;;;3.20;100.00;146862.09;5027222;28;20599;-61
2023/01/29 10:10:22;;;;;;;6.17;5.77;;;;;;;3.14;100.00;146847.00;5051702;28;20656;-61
2023/01/29 10:13:01;;;;;;;6.10;5.80;;;;;;;3.16;100.00;146852.06;5051342;28;20220;-61
2023/01/29 10:15:44;;;;;;;7.80;6.53;;;;;;;3.01;100.00;146814.34;5051915;28;20198;-63
2023/01/29 10:18:36;;;;;;;7.57;6.07;;;;;;;3.01;100.00;146813.13;5051582;28;20190;-63
2023/01/29 10:21:19;;;;;;;6.97;6.37;;;;;;;2.99;100.00;146809.34;5051784;28;20536;-61
2023/01/29 10:23:50;;;;;;;7.13;6.60;;;;;;;2.90;100.00;146785.47;5051577;28;20662;-62
2023/01/29 10:26:23;;;;;;;6.73;6.17;;;;;;;2.89;100.00;146784.19;5051537;28;20632;-62
2023/01/29 10:28:55;;;;;;;7.47;6.97;;;;;;;2.73;100.00;146744.03;5051323;28;20186;-62
2023/01/29 10:31:26;;;;;;;6.77;6.33;;;;;;;2.91;100.00;146788.00;5051590;28;20548;-63
2023/01/29 10:33:57;;;;;;;7.07;6.60;;;;;;;2.90;100.00;146786.72;5051753;28;20220;-62
2023/01/29 10:36:34;;;;;;;7.73;7.03;;;;;;;2.98;100.00;146806.81;5051095;28;20619;-62
2023/01/29 10:39:01;;;;;;;8.27;7.57;;;;;;;2.69;100.00;146733.97;5051034;28;20181;-62
2023/01/29 10:41:48;;;;;;;7.40;6.80;;;;;;;2.64;100.00;146721.41;5051103;28;20185;-61
2023/01/29 10:44:26;;;;;;;7.53;6.67;;;;;;;2.61;100.00;146713.91;5051136;28;20190;-63
2023/01/29 10:47:17;;;;;;;7.40;6.80;;;;;;;2.65;100.00;146723.94;5033667;28;20644;-62
2023/01/29 10:50:05;;;;;;;5.70;5.40;;;;;;;2.53;100.00;146695.06;5051414;28;20208;-61
2023/01/29 10:52:45;;;;;;;8.57;7.87;;;;;;;2.52;100.00;146692.56;5051212;28;20561;-61
2023/01/29 10:55:30;;;;;;;10.63;7.40;;;;;;;2.55;100.00;146700.06;5051227;28;20322;-63
2023/01/29 10:58:08;;;;;;;8.97;7.00;;;;;;;2.75;100.00;146749.06;5051090;28;20201;-62
2023/01/29 11:00:38;;;;;;;8.03;7.33;;;;;;;2.84;100.00;146771.69;5050978;28;20189;-63
2023/01/29 11:03:15;;;;;;;7.33;6.83;;;;;;;2.89;100.00;146782.94;5051163;28;20182;-63
2023/01/29 11:05:56;;;;;;;7.27;6.77;;;;;;;2.82;100.00;146765.38;5050948;28;20185;-62
2023/01/29 11:08:27;;;;;;;7.30;6.80;;;;;;;2.72;100.00;146741.50;5052266;28;20269;-61
2023/01/29 11:11:02;;;;;;;7.47;6.87;;;;;;;2.88;100.00;146780.47;5037045;28;20247;-61
2023/01/29 11:13:35;;;;;;;8.40;7.70;;;;;;;3.07;100.00;146829.44;5054483;28;20216;-63
2023/01/29 11:16:04;;;;;;;8.50;7.43;;;;;;;3.10;100.00;146836.97;5054899;28;20559;-62
2023/01/29 11:18:50;;;;;;;7.13;6.63;;;;;;;3.23;100.00;146868.34;5054478;28;20200;-64
2023/01/29 11:21:16;;;;;;;8.03;7.43;;;;;;;3.23;100.00;146869.63;5054541;28;20180;-61
2023/01/29 11:23:43;;;;;;;7.03;6.37;;;;;;;3.14;100.00;146845.78;5054506;28;20184;-61
2023/01/29 11:26:13;;;;;;;7.40;6.90;;;;;;;2.93;100.00;146794.25;5054784;28;20192;-61
2023/01/29 11:28:42;;;;;;;6.77;6.27;;;;;;;2.81;100.00;146764.13;5054368;28;20185;-60
2023/01/29 11:31:18;;;;;;;6.73;6.23;;;;;;;2.85;100.00;146772.91;5054328;28;20189;-62
2023/01/29 11:33:46;;;;;;;6.80;6.30;;;;;;;2.74;100.00;146746.56;5054476;28;20228;-63
2023/01/29 11:36:21;;;;;;;7.27;6.57;;;;;;;2.92;100.00;146791.78;5054095;28;20233;-63
2023/01/29 11:39:10;;;;;;;9.00;6.93;;;;;;;2.79;100.00;146757.84;5054383;28;20674;-63
2023/01/29 11:41:43;;;;;;;6.90;6.43;;;;;;;2.74;100.00;146746.56;5054272;28;20273;-62
2023/01/29 11:44:26;;;;;;;8.43;7.67;;;;;;;2.93;100.00;146793.03;5054320;28;20234;-62
2023/01/29 11:46:53;;;;;;;6.97;6.47;;;;;;;2.82;100.00;146765.38;5054188;28;20655;-62
2023/01/29 11:49:33;;;;;;;7.10;6.60;;;;;;;2.93;100.00;146793.03;5054560;28;20648;-62
2023/01/29 11:52:03;;;;;;;6.90;6.50;;;;;;;3.00;100.00;146810.59;5053901;28;20188;-62
2023/01/29 11:54:36;;;;;;;6.77;6.37;;;;;;;2.95;100.00;146799.28;5054252;28;20209;-61
2023/01/29 11:57:04;;;;;;;7.80;6.90;;;;;;;3.08;100.00;146831.97;5054312;28;20185;-61
2023/01/29 11:59:43;;;;;;;7.53;7.03;;;;;;;3.04;100.00;146821.91;5036274;28;20197;-62
2023/01/29 12:02:26;;;;;;;8.90;8.13;;;;;;;3.05;100.00;146824.44;5053872;28;20195;-63
2023/01/29 12:04:56;;;;;;;7.80;7.37;;;;;;;2.95;100.00;146798.03;5053668;28;20199;-61
2023/01/29 12:07:23;;;;;;;8.70;8.10;;;;;;;2.94;100.00;146795.50;5053422;28;20185;-62
2023/01/29 12:09:54;;;;;;;7.77;7.17;;;;;;;3.07;100.00;146829.44;5053496;28;20182;-63
2023/01/29 12:12:33;;;;;;;8.27;7.67;;;;;;;3.14;100.00;146845.78;5053862;28;20181;-61
2023/01/29 12:15:18;;;;;;;8.40;7.73;;;;;;;3.09;100.00;146833.22;5053360;28;20196;-63